createdAt,value
2023-01-19T00:01:00.710Z,18.70
2023-01-19T00:03:28.004Z,16.63
2023-01-19T00:05:55.253Z,16.70
2023-01-19T00:08:22.879Z,18.30
2023-01-19T00:10:53.825Z,17.60
2023-01-19T00:13:21.329Z,18.47
2023-01-19T00:15:48.534Z,20.43
2023-01-19T00:18:16.016Z,16.47
2023-01-19T00:20:45.485Z,16.60
2023-01-19T00:23:12.653Z,21.33
2023-01-19T00:25:42.417Z,18.07
2023-01-19T00:28:13.904Z,17.33
2023-01-19T00:30:42.129Z,14.97
2023-01-19T00:33:10.059Z,19.80
2023-01-19T00:35:37.563Z,14.60
2023-01-19T00:38:05.325Z,17.10
2023-01-19T00:40:32.703Z,18.23
2023-01-19T00:43:00.626Z,20.07
2023-01-19T00:45:28.585Z,15.53
2023-01-19T00:47:59.318Z,15.33
2023-01-19T00:50:27.977Z,16.17
2023-01-19T00:52:56.485Z,15.67
2023-01-19T00:55:24.199Z,15.53
2023-01-19T00:57:51.695Z,19.27
2023-01-19T01:00:20.658Z,14.97
2023-01-19T01:02:48.900Z,16.33
2023-01-19T01:05:16.753Z,20.20
2023-01-19T01:07:45.581Z,18.30
2023-01-19T01:10:17.680Z,18.17
2023-01-19T01:12:56.635Z,17.70
2023-01-19T01:15:32.698Z,14.80
2023-01-19T01:18:00.733Z,16.40
2023-01-19T01:20:30.145Z,19.07
2023-01-19T01:22:57.949Z,23.37
2023-01-19T01:25:26.337Z,15.70
2023-01-19T01:27:54.910Z,17.73
2023-01-19T01:30:23.135Z,15.37
2023-01-19T01:32:50.469Z,16.27
2023-01-19T01:35:18.505Z,19.93
2023-01-19T01:37:46.038Z,19.80
2023-01-19T01:40:15.365Z,26.30
2023-01-19T01:42:42.937Z,18.13
2023-01-19T01:45:22.770Z,17.80
2023-01-19T01:47:51.260Z,16.40
2023-01-19T01:50:20.177Z,15.97
2023-01-19T01:53:06.492Z,18.03
2023-01-19T01:55:43.926Z,17.30
2023-01-19T01:58:12.467Z,17.13
2023-01-19T02:00:59.501Z,23.40
2023-01-19T02:03:27.496Z,17.30
2023-01-19T02:05:57.449Z,17.93
2023-01-19T02:08:49.456Z,19.40
2023-01-19T02:11:36.466Z,18.87
2023-01-19T02:14:07.265Z,15.67
2023-01-19T02:16:35.061Z,20.00
2023-01-19T02:19:03.579Z,13.90
2023-01-19T02:21:42.954Z,17.80
2023-01-19T02:24:10.971Z,15.90
2023-01-19T02:26:40.520Z,17.47
2023-01-19T02:29:12.400Z,20.20
2023-01-19T02:31:40.406Z,16.33
2023-01-19T02:34:09.357Z,23.00
2023-01-19T02:36:42.500Z,18.40
2023-01-19T02:39:10.917Z,22.30
2023-01-19T02:41:41.332Z,19.63
2023-01-19T02:44:09.567Z,17.00
2023-01-19T02:46:37.391Z,17.30
2023-01-19T02:49:05.175Z,22.97
2023-01-19T02:51:32.657Z,18.83
2023-01-19T02:54:00.307Z,22.83
2023-01-19T02:56:42.870Z,16.93
2023-01-19T02:59:19.739Z,20.83
2023-01-19T03:01:47.367Z,16.40
2023-01-19T03:04:20.217Z,19.17
2023-01-19T03:06:50.133Z,18.53
2023-01-19T03:09:35.392Z,16.63
2023-01-19T03:12:10.024Z,18.83
2023-01-19T03:14:41.505Z,18.10
2023-01-19T03:17:10.794Z,20.30
2023-01-19T03:19:40.166Z,19.33
2023-01-19T03:22:27.703Z,16.57
2023-01-19T03:24:55.899Z,18.40
2023-01-19T03:27:32.306Z,20.43
2023-01-19T03:30:06.629Z,17.10
2023-01-19T03:32:37.269Z,19.23
2023-01-19T03:35:06.865Z,18.13
2023-01-19T03:37:34.748Z,21.07
2023-01-19T03:40:02.091Z,17.97
2023-01-19T03:42:29.613Z,24.37
2023-01-19T03:44:58.233Z,19.87
2023-01-19T03:47:25.955Z,21.60
2023-01-19T03:49:53.710Z,20.43
2023-01-19T03:52:28.367Z,22.60
2023-01-19T03:54:56.058Z,24.40
2023-01-19T03:57:23.340Z,17.77
2023-01-19T03:59:50.809Z,16.93
2023-01-19T04:02:18.031Z,19.67
2023-01-19T04:04:45.663Z,17.20
2023-01-19T04:07:13.215Z,21.03
2023-01-19T04:09:40.698Z,20.50
2023-01-19T04:12:08.396Z,17.83
2023-01-19T04:14:36.032Z,21.17
2023-01-19T04:17:03.174Z,19.90
2023-01-19T04:19:30.389Z,19.07
2023-01-19T04:21:57.722Z,19.70
2023-01-19T04:24:25.049Z,18.20
2023-01-19T04:26:53.494Z,20.53
2023-01-19T04:29:21.058Z,21.77
2023-01-19T04:31:48.469Z,21.07
2023-01-19T04:34:15.968Z,26.43
2023-01-19T04:36:45.188Z,16.83
2023-01-19T04:39:12.580Z,20.33
2023-01-19T04:41:39.749Z,28.27
2023-01-19T04:44:07.629Z,21.90
2023-01-19T04:46:35.479Z,19.60
2023-01-19T04:49:03.162Z,27.23
2023-01-19T04:51:30.532Z,20.70
2023-01-19T04:53:57.786Z,18.43
2023-01-19T04:56:24.975Z,25.43
2023-01-19T04:58:52.448Z,21.90
2023-01-19T05:01:19.638Z,18.90
2023-01-19T05:03:47.117Z,25.60
2023-01-19T05:06:14.977Z,25.43
2023-01-19T05:08:44.545Z,25.60
2023-01-19T05:11:12.473Z,24.20
2023-01-19T05:13:39.780Z,25.40
2023-01-19T05:16:07.457Z,23.20
2023-01-19T05:18:36.885Z,24.57
2023-01-19T05:21:04.580Z,20.67
2023-01-19T05:23:32.709Z,21.87
2023-01-19T05:26:02.289Z,25.30
2023-01-19T05:28:30.150Z,17.77
2023-01-19T05:30:57.786Z,28.03
2023-01-19T05:33:26.066Z,22.30
2023-01-19T05:35:54.306Z,25.13
2023-01-19T05:38:34.247Z,24.07
2023-01-19T05:41:02.774Z,26.20
2023-01-19T05:43:30.032Z,25.60
2023-01-19T05:45:59.525Z,25.97
2023-01-19T05:48:27.101Z,24.17
2023-01-19T05:50:58.192Z,25.87
2023-01-19T05:53:25.819Z,25.73
2023-01-19T05:55:53.137Z,22.80
2023-01-19T05:58:20.666Z,27.50
2023-01-19T06:00:47.861Z,27.23
2023-01-19T06:03:15.311Z,23.30
2023-01-19T06:05:43.573Z,22.33
2023-01-19T06:08:10.900Z,25.57
2023-01-19T06:10:38.108Z,24.60
2023-01-19T06:13:05.619Z,23.50
2023-01-19T06:15:33.454Z,26.53
2023-01-19T06:18:01.500Z,22.00
2023-01-19T06:20:28.784Z,22.33
2023-01-19T06:22:59.542Z,20.73
2023-01-19T06:25:27.324Z,28.40
2023-01-19T06:27:54.869Z,20.63
2023-01-19T06:30:22.425Z,20.27
2023-01-19T06:32:49.633Z,21.97
2023-01-19T06:35:18.279Z,21.43
2023-01-19T06:37:45.861Z,22.67
2023-01-19T06:40:14.501Z,24.23
2023-01-19T06:42:42.141Z,22.33
2023-01-19T06:45:10.016Z,24.37
2023-01-19T06:47:37.198Z,20.53
2023-01-19T06:50:04.424Z,20.50
2023-01-19T06:52:42.008Z,19.50
2023-01-19T06:55:10.794Z,18.63
2023-01-19T06:57:40.059Z,18.40
2023-01-19T07:00:08.863Z,21.67
2023-01-19T07:02:36.335Z,20.87
2023-01-19T07:05:03.573Z,19.57
2023-01-19T07:07:31.074Z,22.27
2023-01-19T07:09:58.283Z,22.03
2023-01-19T07:12:25.445Z,23.23
2023-01-19T07:14:52.749Z,19.97
2023-01-19T07:17:20.201Z,19.63
2023-01-19T07:19:47.360Z,20.30
2023-01-19T07:22:14.641Z,22.03
2023-01-19T07:24:41.780Z,17.70
2023-01-19T07:27:08.971Z,22.57
2023-01-19T07:29:36.202Z,20.20
2023-01-19T07:32:03.372Z,22.80
2023-01-19T07:34:31.152Z,20.17
2023-01-19T07:36:58.281Z,23.67
2023-01-19T07:39:25.436Z,23.27
2023-01-19T07:41:52.596Z,27.37
2023-01-19T07:44:21.787Z,24.67
2023-01-19T07:46:51.050Z,27.07
2023-01-19T07:49:18.269Z,21.50
2023-01-19T07:51:45.408Z,26.10
2023-01-19T07:54:12.950Z,22.03
2023-01-19T07:56:40.480Z,19.90
2023-01-19T07:59:09.568Z,26.53
2023-01-19T08:01:37.621Z,24.17
2023-01-19T08:04:05.644Z,25.03
2023-01-19T08:06:37.561Z,21.60
2023-01-19T08:09:05.638Z,23.13
2023-01-19T08:11:33.228Z,20.03
2023-01-19T08:14:00.856Z,22.20
2023-01-19T08:16:27.997Z,27.23
2023-01-19T08:18:55.394Z,22.13
2023-01-19T08:21:22.516Z,23.70
2023-01-19T08:23:54.194Z,23.30
2023-01-19T08:26:24.083Z,18.10
2023-01-19T08:28:51.536Z,19.30
2023-01-19T08:31:21.848Z,21.47
2023-01-19T08:33:50.837Z,21.73
2023-01-19T08:36:18.006Z,21.93
2023-01-19T08:38:48.304Z,23.47
2023-01-19T08:41:16.855Z,26.43
2023-01-19T08:43:45.303Z,20.10
2023-01-19T08:46:16.762Z,18.03
2023-01-19T08:48:45.129Z,27.47
2023-01-19T08:51:13.058Z,21.00
2023-01-19T08:53:42.082Z,20.00
2023-01-19T08:56:12.540Z,20.67
2023-01-19T08:58:43.632Z,24.53
2023-01-19T09:01:11.221Z,22.23
2023-01-19T09:03:38.363Z,22.23
2023-01-19T09:06:06.327Z,19.00
2023-01-19T09:08:33.796Z,14.33
2023-01-19T09:11:00.930Z,22.00
2023-01-19T09:13:28.105Z,20.50
2023-01-19T09:15:55.471Z,22.87
2023-01-19T09:18:23.232Z,21.17
2023-01-19T09:20:51.155Z,32.83
2023-01-19T09:23:19.581Z,21.30
2023-01-19T09:25:47.271Z,23.43
2023-01-19T09:28:18.044Z,20.70
2023-01-19T09:30:45.330Z,22.70
2023-01-19T09:33:13.762Z,23.40
2023-01-19T09:35:41.571Z,24.17
2023-01-19T09:38:09.350Z,19.23
2023-01-19T09:40:56.536Z,22.50
2023-01-19T09:43:29.568Z,23.40
2023-01-19T09:46:01.075Z,19.73
2023-01-19T09:48:34.223Z,18.43
2023-01-19T09:51:03.458Z,20.30
2023-01-19T09:53:44.337Z,22.83
2023-01-19T09:56:13.739Z,22.10
2023-01-19T09:58:41.604Z,26.87
2023-01-19T10:01:15.870Z,20.83
2023-01-19T10:03:43.161Z,19.57
2023-01-19T10:06:12.413Z,22.83
2023-01-19T10:08:42.633Z,21.77
2023-01-19T10:11:51.547Z,18.40
2023-01-19T10:14:25.302Z,18.20
2023-01-19T10:16:59.037Z,20.47
2023-01-19T10:19:47.523Z,15.40
2023-01-19T10:22:24.965Z,18.20
2023-01-19T10:25:00.890Z,16.53
2023-01-19T10:27:29.424Z,18.37
2023-01-19T10:29:57.668Z,23.37
2023-01-19T10:32:26.836Z,16.70
2023-01-19T10:34:55.618Z,17.17
2023-01-19T10:37:25.653Z,18.30
2023-01-19T10:39:54.629Z,15.70
2023-01-19T10:42:22.073Z,18.87
2023-01-19T10:44:49.878Z,18.50
2023-01-19T10:47:18.089Z,24.50
2023-01-19T10:49:45.948Z,20.50
2023-01-19T10:52:22.679Z,19.40
2023-01-19T10:54:49.890Z,19.90
2023-01-19T10:57:26.320Z,19.70
2023-01-19T10:59:53.475Z,19.10
2023-01-19T11:02:22.289Z,21.67
2023-01-19T11:04:51.272Z,17.90
2023-01-19T11:07:33.017Z,21.47
2023-01-19T11:10:20.786Z,21.33
2023-01-19T11:12:56.756Z,18.60
2023-01-19T11:15:35.642Z,21.10
2023-01-19T11:18:04.608Z,23.33
2023-01-19T11:20:51.521Z,19.53
2023-01-19T11:23:21.664Z,15.40
2023-01-19T11:25:52.487Z,23.10
2023-01-19T11:28:21.022Z,19.60
2023-01-19T11:30:55.407Z,17.97
2023-01-19T11:33:27.283Z,16.13
2023-01-19T11:36:03.332Z,24.97
2023-01-19T11:38:30.553Z,22.80
2023-01-19T11:40:59.131Z,20.93
2023-01-19T11:43:43.375Z,21.07
2023-01-19T11:46:15.857Z,24.57
2023-01-19T11:48:44.175Z,19.87
2023-01-19T11:51:14.523Z,24.13
2023-01-19T11:53:45.496Z,21.03
2023-01-19T11:56:14.096Z,19.43
2023-01-19T11:58:48.193Z,22.07
2023-01-19T12:01:21.432Z,23.80
2023-01-19T12:03:54.888Z,17.77
2023-01-19T12:06:28.304Z,18.90
2023-01-19T12:08:58.764Z,22.53
2023-01-19T12:11:30.091Z,23.70
2023-01-19T12:14:22.082Z,22.20
2023-01-19T12:16:50.789Z,21.13
2023-01-19T12:19:20.290Z,19.07
2023-01-19T12:21:52.320Z,19.03
2023-01-19T12:24:48.915Z,20.80
2023-01-19T12:27:24.086Z,19.27
2023-01-19T12:29:51.459Z,21.10
2023-01-19T12:32:19.833Z,27.07
2023-01-19T12:34:48.514Z,19.60
2023-01-19T12:37:30.638Z,20.67
2023-01-19T12:39:58.998Z,18.03
2023-01-19T12:42:27.040Z,20.37
2023-01-19T12:45:05.762Z,18.70
2023-01-19T12:47:33.279Z,18.40
2023-01-19T12:50:07.076Z,20.90
2023-01-19T12:52:39.216Z,15.70
2023-01-19T12:55:15.636Z,18.30
2023-01-19T12:57:49.432Z,19.27
2023-01-19T13:00:22.731Z,15.83
2023-01-19T13:02:49.970Z,18.27
2023-01-19T13:05:17.241Z,17.33
2023-01-19T13:08:02.771Z,17.27
2023-01-19T13:10:48.920Z,15.97
2023-01-19T13:13:20.197Z,12.37
2023-01-19T13:15:47.397Z,12.40
2023-01-19T13:18:21.556Z,17.23
2023-01-19T13:20:51.619Z,17.60
2023-01-19T13:23:20.632Z,14.00
2023-01-19T13:25:55.145Z,15.57
2023-01-19T13:28:31.270Z,14.67
2023-01-19T13:30:59.726Z,18.43
2023-01-19T13:33:28.680Z,16.67
2023-01-19T13:35:59.497Z,13.97
2023-01-19T13:38:27.371Z,11.57
2023-01-19T13:40:55.885Z,17.07
2023-01-19T13:43:34.305Z,12.70
2023-01-19T13:46:01.907Z,13.00
2023-01-19T13:48:29.303Z,13.50
2023-01-19T13:51:07.054Z,17.27
2023-01-19T13:53:35.365Z,14.23
2023-01-19T13:56:23.038Z,12.43
2023-01-19T13:59:12.425Z,13.70
2023-01-19T14:01:42.356Z,18.37
2023-01-19T14:04:26.336Z,13.93
2023-01-19T14:06:55.598Z,12.60
2023-01-19T14:09:22.856Z,16.43
2023-01-19T14:12:05.380Z,16.23
2023-01-19T14:14:32.623Z,13.97
2023-01-19T14:16:59.800Z,16.33
2023-01-19T14:19:27.061Z,16.10
2023-01-19T14:22:01.964Z,13.87
2023-01-19T14:24:31.896Z,16.73
2023-01-19T14:27:20.889Z,14.40
2023-01-19T14:29:50.451Z,15.07
2023-01-19T14:32:19.644Z,15.23
2023-01-19T14:34:48.411Z,16.40
2023-01-19T14:37:23.226Z,16.43
2023-01-19T14:39:53.351Z,14.57
2023-01-19T14:42:24.108Z,14.93
2023-01-19T14:44:52.806Z,14.13
2023-01-19T14:47:23.214Z,15.40
2023-01-19T14:49:50.364Z,19.43
2023-01-19T14:52:22.252Z,17.90
2023-01-19T14:54:49.803Z,19.43
2023-01-19T14:57:16.954Z,14.30
2023-01-19T14:59:48.266Z,20.90
2023-01-19T15:02:15.468Z,15.37
2023-01-19T15:04:43.750Z,18.63
2023-01-19T15:07:20.059Z,22.03
2023-01-19T15:09:47.922Z,18.60
2023-01-19T15:12:17.557Z,22.60
2023-01-19T15:14:45.125Z,23.03
2023-01-19T15:17:27.954Z,20.23
2023-01-19T15:19:55.537Z,21.27
2023-01-19T15:22:23.738Z,21.23
2023-01-19T15:24:50.922Z,23.13
2023-01-19T15:27:18.195Z,20.80
2023-01-19T15:29:45.996Z,19.53
2023-01-19T15:32:14.317Z,22.20
2023-01-19T15:34:41.887Z,20.80
2023-01-19T15:37:09.088Z,20.53
2023-01-19T15:39:36.421Z,22.60
2023-01-19T15:42:04.762Z,21.03
2023-01-19T15:44:31.985Z,17.53
2023-01-19T15:46:59.296Z,21.53
2023-01-19T15:49:27.350Z,22.13
2023-01-19T15:51:54.509Z,18.50
2023-01-19T15:54:23.126Z,21.60
2023-01-19T15:56:51.164Z,22.17
2023-01-19T15:59:18.299Z,18.53
2023-01-19T16:01:45.646Z,19.27
2023-01-19T16:04:13.159Z,17.97
2023-01-19T16:06:40.442Z,19.30
2023-01-19T16:09:07.590Z,18.40
2023-01-19T16:11:35.450Z,17.83
2023-01-19T16:14:02.725Z,20.70
2023-01-19T16:16:30.017Z,20.57
2023-01-19T16:18:57.269Z,19.23
2023-01-19T16:21:24.829Z,17.97
2023-01-19T16:23:52.061Z,19.37
2023-01-19T16:26:27.159Z,17.07
2023-01-19T16:29:01.608Z,21.03
2023-01-19T16:31:28.828Z,20.53
2023-01-19T16:33:56.052Z,20.87
2023-01-19T16:36:30.785Z,17.90
2023-01-19T16:39:05.589Z,22.50
2023-01-19T16:41:35.822Z,21.00
2023-01-19T16:44:03.319Z,17.60
2023-01-19T16:46:35.217Z,23.73
2023-01-19T16:49:22.708Z,29.93
2023-01-19T16:51:52.941Z,18.37
2023-01-19T16:54:21.492Z,24.33
2023-01-19T16:56:49.066Z,24.03
2023-01-19T16:59:17.329Z,24.23
2023-01-19T17:01:45.340Z,22.67
2023-01-19T17:04:13.194Z,23.13
2023-01-19T17:06:41.352Z,22.90
2023-01-19T17:09:11.505Z,19.53
2023-01-19T17:11:40.210Z,19.77
2023-01-19T17:14:20.297Z,19.93
2023-01-19T17:16:47.935Z,22.07
2023-01-19T17:19:22.109Z,23.47
2023-01-19T17:21:50.768Z,24.20
2023-01-19T17:24:18.351Z,19.30
2023-01-19T17:26:48.397Z,22.80
2023-01-19T17:29:16.850Z,23.83
2023-01-19T17:31:44.567Z,22.77
2023-01-19T17:34:11.786Z,38.90
2023-01-19T17:36:40.856Z,24.33
2023-01-19T17:39:11.214Z,23.37
2023-01-19T17:41:38.735Z,24.20
2023-01-19T17:44:06.355Z,24.27
2023-01-19T17:46:35.987Z,22.13
2023-01-19T17:49:04.774Z,25.90
2023-01-19T17:51:32.582Z,25.20
2023-01-19T17:54:00.044Z,27.00
2023-01-19T17:56:29.777Z,28.10
2023-01-19T17:58:58.227Z,29.00
2023-01-19T18:01:31.584Z,27.10
2023-01-19T18:03:59.010Z,26.67
2023-01-19T18:06:26.235Z,23.10
2023-01-19T18:08:54.048Z,23.83
2023-01-19T18:11:21.899Z,21.40
2023-01-19T18:13:50.385Z,23.93
2023-01-19T18:16:19.843Z,26.07
2023-01-19T18:18:49.496Z,25.40
2023-01-19T18:21:16.870Z,24.83
2023-01-19T18:23:45.092Z,23.60
2023-01-19T18:26:14.481Z,30.83
2023-01-19T18:28:41.609Z,27.37
2023-01-19T18:31:13.397Z,23.73
2023-01-19T18:33:41.346Z,20.27
2023-01-19T18:36:10.333Z,27.50
2023-01-19T18:38:37.490Z,22.27
2023-01-19T18:41:08.956Z,20.77
2023-01-19T18:43:36.399Z,24.90
2023-01-19T18:46:03.914Z,29.20
2023-01-19T18:48:31.236Z,26.17
2023-01-19T18:51:03.152Z,20.83
2023-01-19T18:53:31.203Z,21.83
2023-01-19T18:55:59.778Z,29.90
2023-01-19T18:58:31.380Z,25.27
2023-01-19T19:01:03.126Z,23.73
2023-01-19T19:03:30.985Z,24.90
2023-01-19T19:06:03.050Z,22.63
2023-01-19T19:08:30.197Z,23.70
2023-01-19T19:10:57.345Z,26.00
2023-01-19T19:13:25.253Z,23.93
2023-01-19T19:15:52.587Z,28.97
2023-01-19T19:18:20.198Z,26.47
2023-01-19T19:20:47.672Z,27.00
2023-01-19T19:23:14.997Z,32.77
2023-01-19T19:25:42.091Z,28.23
2023-01-19T19:28:09.860Z,32.07
2023-01-19T19:30:38.935Z,26.70
2023-01-19T19:33:07.712Z,22.30
2023-01-19T19:35:34.861Z,26.30
2023-01-19T19:38:02.285Z,26.87
2023-01-19T19:40:29.532Z,30.10
2023-01-19T19:42:58.728Z,22.33
2023-01-19T19:45:26.698Z,24.47
2023-01-19T19:47:53.839Z,28.27
2023-01-19T19:50:21.268Z,29.67
2023-01-19T19:52:48.673Z,25.53
2023-01-19T19:55:16.889Z,27.37
2023-01-19T19:57:44.056Z,26.97
2023-01-19T20:00:11.993Z,30.77
2023-01-19T20:02:39.436Z,25.70
2023-01-19T20:05:07.026Z,28.67
2023-01-19T20:07:34.294Z,27.60
2023-01-19T20:10:01.752Z,31.83
2023-01-19T20:12:29.160Z,28.33
2023-01-19T20:14:56.619Z,27.07
2023-01-19T20:17:24.605Z,27.43
2023-01-19T20:19:52.029Z,26.80
2023-01-19T20:22:19.478Z,27.90
2023-01-19T20:24:47.058Z,31.97
2023-01-19T20:27:14.448Z,29.63
2023-01-19T20:29:41.648Z,25.63
2023-01-19T20:32:10.686Z,26.00
2023-01-19T20:34:38.391Z,32.50
2023-01-19T20:37:06.120Z,28.63
2023-01-19T20:39:35.229Z,35.40
2023-01-19T20:42:03.008Z,30.07
2023-01-19T20:44:30.785Z,25.23
2023-01-19T20:46:57.945Z,29.80
2023-01-19T20:49:25.412Z,30.37
2023-01-19T20:51:53.247Z,33.80
2023-01-19T20:54:22.246Z,28.10
2023-01-19T20:56:49.770Z,35.03
2023-01-19T20:59:17.505Z,29.73
2023-01-19T21:01:45.311Z,37.53
2023-01-19T21:04:13.345Z,33.77
2023-01-19T21:06:41.071Z,38.93
2023-01-19T21:09:09.042Z,29.97
2023-01-19T21:11:36.727Z,30.20
2023-01-19T21:14:04.340Z,31.70
2023-01-19T21:16:32.977Z,33.37
2023-01-19T21:19:00.389Z,32.90
2023-01-19T21:21:31.850Z,28.50
2023-01-19T21:24:00.993Z,29.87
2023-01-19T21:26:30.110Z,32.23
2023-01-19T21:29:00.784Z,32.97
2023-01-19T21:31:28.417Z,36.07
2023-01-19T21:33:57.989Z,34.03
2023-01-19T21:36:25.524Z,34.20
2023-01-19T21:38:52.919Z,33.47
2023-01-19T21:41:20.371Z,34.20
2023-01-19T21:43:47.514Z,37.87
2023-01-19T21:46:29.527Z,37.53
2023-01-19T21:49:01.218Z,35.90
2023-01-19T21:51:29.101Z,39.10
2023-01-19T21:53:59.359Z,36.77
2023-01-19T21:56:27.321Z,40.17
2023-01-19T21:58:54.903Z,34.40
2023-01-19T22:01:23.629Z,33.80
2023-01-19T22:03:54.918Z,34.07
2023-01-19T22:06:22.426Z,35.93
2023-01-19T22:08:49.866Z,38.70
2023-01-19T22:11:18.391Z,35.17
2023-01-19T22:13:46.035Z,38.47
2023-01-19T22:16:14.706Z,31.27
2023-01-19T22:18:43.183Z,33.07
2023-01-19T22:21:20.533Z,32.53
2023-01-19T22:23:54.702Z,34.80
2023-01-19T22:26:24.472Z,37.50
2023-01-19T22:28:59.048Z,28.60
2023-01-19T22:31:26.883Z,26.77
2023-01-19T22:33:55.113Z,32.60
2023-01-19T22:36:26.007Z,33.40
2023-01-19T22:38:54.346Z,31.80
2023-01-19T22:41:22.966Z,27.70
2023-01-19T22:43:51.295Z,35.70
2023-01-19T22:46:19.491Z,36.40
2023-01-19T22:48:47.507Z,34.13
2023-01-19T22:51:14.950Z,35.63
2023-01-19T22:53:42.050Z,34.47
2023-01-19T22:56:16.596Z,33.67
2023-01-19T22:58:44.736Z,30.83
2023-01-19T23:01:13.014Z,36.33
2023-01-19T23:03:40.510Z,29.83
2023-01-19T23:06:08.819Z,33.33
2023-01-19T23:08:36.241Z,31.10
2023-01-19T23:11:10.734Z,30.53
2023-01-19T23:13:37.921Z,32.00
2023-01-19T23:16:05.883Z,31.47
2023-01-19T23:18:33.346Z,33.30
2023-01-19T23:21:04.637Z,32.03
2023-01-19T23:23:34.392Z,31.23
2023-01-19T23:26:02.424Z,34.97
2023-01-19T23:28:30.516Z,34.63
2023-01-19T23:30:59.071Z,32.03
2023-01-19T23:33:26.635Z,28.80
2023-01-19T23:35:56.130Z,31.50
2023-01-19T23:38:23.406Z,31.17
2023-01-19T23:40:50.597Z,27.97
2023-01-19T23:43:18.233Z,33.13
2023-01-19T23:45:45.444Z,27.63
2023-01-19T23:48:12.784Z,33.30
2023-01-19T23:50:40.765Z,33.87
2023-01-19T23:53:08.137Z,31.37
2023-01-19T23:55:36.035Z,29.93
2023-01-19T23:58:04.500Z,38.33
